Time;durP1;ratioP1;P1;durP2;ratioP2;P2;SDS_P1;SDS_P2;PMS_P1;PMS_P2;Temp;Humidity;BMP_temperature;BMP_pressure;BME280_temperature;BME280_humidity;BME280_pressure;Samples;Min_cycle;Max_cycle;Signal;HPM_P1;HPM_P2
2021/05/31 00:00:59;;;;;;;22.17;16.38;;;23.30;91.10;;;;;;5054844;28;20576;-82
2021/05/31 00:03:25;;;;;;;21.13;17.25;;;23.30;91.10;;;;;;5055356;28;20040;-82
2021/05/31 00:05:51;;;;;;;22.77;17.65;;;23.30;91.10;;;;;;5038846;28;20036;-82
2021/05/31 00:08:16;;;;;;;23.67;18.40;;;23.30;91.10;;;;;;5073611;28;20036;-81
2021/05/31 00:10:42;;;;;;;23.20;18.33;;;23.30;91.10;;;;;;5055326;28;20071;-82
2021/05/31 00:13:07;;;;;;;22.95;18.77;;;23.20;91.10;;;;;;5038578;28;20131;-81
2021/05/31 00:15:33;;;;;;;24.88;19.65;;;23.20;91.10;;;;;;5055197;28;20024;-81
2021/05/31 00:18:00;;;;;;;24.98;19.67;;;23.30;91.10;;;;;;5055099;28;20024;-81
2021/05/31 00:20:26;;;;;;;24.95;20.67;;;23.30;91.10;;;;;;5039165;28;20025;-81
2021/05/31 00:22:52;;;;;;;27.67;21.38;;;23.20;91.10;;;;;;5038358;28;20033;-81
2021/05/31 00:25:18;;;;;;;27.83;21.92;;;23.30;91.20;;;;;;5055061;28;20034;-81
2021/05/31 00:27:44;;;;;;;27.42;22.85;;;23.30;91.20;;;;;;5055093;28;20040;-82
2021/05/31 00:30:11;;;;;;;32.13;24.15;;;23.30;91.10;;;;;;5073181;28;20033;-82
2021/05/31 00:32:37;;;;;;;30.40;23.23;;;23.30;91.20;;;;;;5038656;28;20044;-81
2021/05/31 00:35:05;;;;;;;30.30;23.67;;;23.20;91.10;;;;;;5038217;28;20082;-82
2021/05/31 00:37:31;;;;;;;32.47;25.00;;;23.30;91.10;;;;;;5072965;28;20029;-81
2021/05/31 00:39:57;;;;;;;32.10;24.63;;;23.20;91.10;;;;;;5072752;28;20039;-82
2021/05/31 00:42:22;;;;;;;31.35;25.02;;;23.30;91.20;;;;;;5055100;28;20033;-81
2021/05/31 00:44:48;;;;;;;31.77;26.08;;;23.20;91.10;;;;;;5038134;28;20039;-82
2021/05/31 00:47:16;;;;;;;30.90;24.95;;;23.20;91.10;;;;;;5055156;28;20031;-81
2021/05/31 00:49:43;;;;;;;31.98;26.33;;;23.20;91.10;;;;;;5072669;28;20029;-81
2021/05/31 00:52:09;;;;;;;33.88;26.73;;;23.30;91.20;;;;;;5072737;28;20134;-81
2021/05/31 00:54:35;;;;;;;33.78;26.27;;;23.20;91.10;;;;;;5054646;28;20056;-81
2021/05/31 00:57:02;;;;;;;32.53;26.20;;;23.20;91.10;;;;;;5054569;28;20105;-81
2021/05/31 00:59:28;;;;;;;35.20;27.15;;;23.20;91.10;;;;;;5054709;28;20470;-81
2021/05/31 01:01:54;;;;;;;35.30;27.42;;;23.30;91.10;;;;;;5072822;28;20197;-81
2021/05/31 01:04:20;;;;;;;31.58;25.83;;;23.20;91.10;;;;;;5054922;28;20035;-81
2021/05/31 01:07:04;;;;;;;34.22;26.73;;;23.20;91.10;;;;;;5072669;28;20100;-81
2021/05/31 01:09:55;;;;;;;32.65;26.38;;;23.20;91.10;;;;;;5072981;28;20190;-81
2021/05/31 01:12:49;;;;;;;30.88;25.00;;;23.20;91.10;;;;;;5072703;28;20036;-81
2021/05/31 01:15:26;;;;;;;31.05;25.73;;;23.20;91.10;;;;;;5072920;28;20035;-81
2021/05/31 01:18:17;;;;;;;30.88;25.02;;;23.20;91.10;;;;;;5054695;28;20474;-82
2021/05/31 01:21:03;;;;;;;31.27;24.63;;;23.20;91.10;;;;;;5054706;28;20101;-81
2021/05/31 01:23:36;;;;;;;33.85;25.60;;;23.20;91.10;;;;;;5072618;28;20021;-81
2021/05/31 01:26:18;;;;;;;30.23;24.63;;;23.20;91.10;;;;;;5075841;28;20028;-82
2021/05/31 01:28:47;;;;;;;31.48;26.05;;;23.20;91.10;;;;;;5076163;28;20090;-81
2021/05/31 01:31:20;;;;;;;35.45;26.48;;;23.20;91.10;;;;;;5075808;28;20474;-81
2021/05/31 01:33:49;;;;;;;34.33;26.33;;;23.20;91.10;;;;;;5076415;28;20032;-82
2021/05/31 01:36:15;;;;;;;32.97;25.77;;;23.20;91.10;;;;;;5058315;28;20036;-81
2021/05/31 01:38:42;;;;;;;32.28;25.88;;;23.20;91.10;;;;;;5076169;28;20092;-81
2021/05/31 01:41:10;;;;;;;33.00;26.38;;;23.20;91.10;;;;;;5075865;28;20039;-82
2021/05/31 01:43:38;;;;;;;30.90;25.27;;;23.20;91.10;;;;;;5076105;28;20031;-81
2021/05/31 01:46:05;;;;;;;32.95;26.60;;;23.20;91.10;;;;;;5058313;28;20111;-82
2021/05/31 01:48:31;;;;;;;31.40;25.38;;;23.20;91.10;;;;;;5041703;28;20123;-82
2021/05/31 01:50:59;;;;;;;31.70;25.70;;;23.20;91.10;;;;;;5057746;28;20119;-82
2021/05/31 01:53:26;;;;;;;30.15;25.17;;;23.20;91.10;;;;;;5058188;28;20039;-82
2021/05/31 01:55:52;;;;;;;33.35;26.42;;;23.20;91.10;;;;;;5041555;28;20037;-83
2021/05/31 01:58:19;;;;;;;31.88;25.80;;;23.20;91.10;;;;;;5041401;28;20047;-82
2021/05/31 02:00:45;;;;;;;33.88;27.23;;;23.20;91.10;;;;;;5057737;28;20049;-82
2021/05/31 02:03:11;;;;;;;32.75;25.90;;;23.20;91.10;;;;;;5057455;28;20025;-82
2021/05/31 02:05:36;;;;;;;31.85;26.00;;;23.20;91.10;;;;;;5057797;28;20060;-82
2021/05/31 02:08:03;;;;;;;30.67;25.35;;;23.20;91.10;;;;;;5075387;28;20074;-82
2021/05/31 02:10:28;;;;;;;34.10;26.95;;;23.20;91.10;;;;;;5057655;28;20474;-82
2021/05/31 02:12:56;;;;;;;31.85;25.48;;;23.20;91.10;;;;;;5057263;28;20043;-82
2021/05/31 02:15:40;;;;;;;32.83;27.25;;;23.20;91.10;;;;;;5075648;28;20029;-82
2021/05/31 02:18:10;;;;;;;31.30;25.25;;;23.20;91.10;;;;;;5057312;28;20454;-81
2021/05/31 02:20:37;;;;;;;31.95;26.80;;;23.20;91.20;;;;;;5075389;28;20031;-81
2021/05/31 02:23:05;;;;;;;32.80;26.40;;;23.20;91.20;;;;;;5057153;28;20036;-81
2021/05/31 02:25:32;;;;;;;34.67;26.70;;;23.20;91.10;;;;;;5057380;28;20063;-81
2021/05/31 02:27:58;;;;;;;34.10;27.65;;;23.20;91.20;;;;;;5074731;28;20440;-82
2021/05/31 02:30:25;;;;;;;32.25;26.70;;;23.20;91.10;;;;;;5057687;28;20036;-81
2021/05/31 02:33:02;;;;;;;33.97;27.50;;;23.20;91.10;;;;;;5075108;28;20036;-81
2021/05/31 02:35:30;;;;;;;32.42;26.02;;;23.20;91.20;;;;;;5057353;28;20036;-81
2021/05/31 02:37:58;;;;;;;34.75;27.08;;;23.20;91.20;;;;;;5074884;28;20024;-82
2021/05/31 02:40:25;;;;;;;34.00;27.33;;;23.20;91.20;;;;;;5075363;28;20027;-81
2021/05/31 02:43:00;;;;;;;33.00;27.08;;;23.20;91.20;;;;;;5057138;28;20071;-80
2021/05/31 02:45:27;;;;;;;33.60;26.08;;;23.20;91.20;;;;;;5074818;28;20025;-82
2021/05/31 02:47:53;;;;;;;31.20;25.67;;;23.20;91.10;;;;;;5057360;28;20029;-82
2021/05/31 02:50:20;;;;;;;33.63;26.10;;;23.20;91.10;;;;;;5074587;28;20033;-82
2021/05/31 02:52:46;;;;;;;31.17;27.33;;;23.20;91.10;;;;;;5074895;28;20028;-82
2021/05/31 02:55:18;;;;;;;32.35;26.52;;;23.20;91.10;;;;;;5056803;28;20516;-82
2021/05/31 02:57:45;;;;;;;33.22;25.95;;;23.20;91.10;;;;;;5074788;28;20039;-81
2021/05/31 03:00:13;;;;;;;31.20;25.20;;;23.20;91.10;;;;;;5056413;28;20052;-81
2021/05/31 03:02:40;;;;;;;30.45;25.75;;;23.20;91.10;;;;;;5074797;28;20474;-82
2021/05/31 03:05:08;;;;;;;29.58;24.50;;;23.20;91.10;;;;;;5056384;28;20039;-82
2021/05/31 03:07:33;;;;;;;30.10;24.70;;;23.20;91.10;;;;;;5056450;28;20031;-81
2021/05/31 03:09:59;;;;;;;32.17;25.65;;;23.20;91.10;;;;;;5039790;28;20119;-81
2021/05/31 03:12:25;;;;;;;28.08;23.20;;;23.20;91.10;;;;;;5039918;28;20032;-82
2021/05/31 03:14:51;;;;;;;30.38;24.23;;;23.20;91.10;;;;;;5056290;28;20032;-82
2021/05/31 03:17:20;;;;;;;27.20;23.17;;;23.20;91.10;;;;;;5073814;28;20060;-82
2021/05/31 03:19:46;;;;;;;30.30;23.65;;;23.20;91.10;;;;;;5055988;28;20111;-82
2021/05/31 03:22:12;;;;;;;27.75;22.15;;;23.20;91.10;;;;;;5073998;28;20060;-80
2021/05/31 03:24:37;;;;;;;29.08;22.20;;;23.20;91.10;;;;;;5039536;28;20047;-80
2021/05/31 03:27:04;;;;;;;27.27;22.00;;;23.20;91.10;;;;;;5056032;28;20024;-81
2021/05/31 03:29:30;;;;;;;27.58;22.48;;;23.20;91.10;;;;;;5074022;28;20029;-81
2021/05/31 03:31:57;;;;;;;26.23;22.20;;;23.20;91.10;;;;;;5039521;28;20025;-81
2021/05/31 03:34:22;;;;;;;27.85;22.38;;;23.20;91.10;;;;;;5055853;28;20166;-81
2021/05/31 03:36:48;;;;;;;27.05;21.17;;;23.20;91.10;;;;;;5039607;28;20127;-82
2021/05/31 03:39:14;;;;;;;26.77;21.77;;;23.20;91.10;;;;;;5073679;28;20493;-82
2021/05/31 03:41:40;;;;;;;25.95;21.90;;;23.20;91.10;;;;;;5055993;28;20071;-82
2021/05/31 03:44:06;;;;;;;26.13;20.85;;;23.20;91.10;;;;;;5022772;28;20055;-82
2021/05/31 03:46:32;;;;;;;24.33;21.38;;;23.20;91.10;;;;;;5055196;28;20037;-81
2021/05/31 03:48:58;;;;;;;25.23;20.83;;;23.20;91.10;;;;;;5073589;28;20108;-80
2021/05/31 03:51:24;;;;;;;23.67;19.75;;;23.20;91.10;;;;;;5073146;28;20029;-81
2021/05/31 03:53:50;;;;;;;23.05;19.02;;;23.20;91.10;;;;;;5055672;28;20075;-81
2021/05/31 03:56:15;;;;;;;23.70;19.08;;;23.20;91.10;;;;;;5022623;28;20059;-81
2021/05/31 03:58:44;;;;;;;23.02;19.17;;;23.20;91.10;;;;;;5055782;28;20417;-81
2021/05/31 04:01:12;;;;;;;22.52;18.70;;;23.20;91.10;;;;;;5054953;28;20433;-82
2021/05/31 04:03:38;;;;;;;23.05;18.27;;;23.20;91.10;;;;;;5039175;28;20028;-81
2021/05/31 04:11:36;;;;;;;23.77;18.42;;;23.20;91.10;;;;;;5057848;28;20058;-82
2021/05/31 04:14:06;;;;;;;23.00;17.92;;;23.20;91.10;;;;;;5041500;28;20044;-81
2021/05/31 04:16:32;;;;;;;20.73;17.40;;;23.20;91.10;;;;;;5073308;28;20082;-81
2021/05/31 04:18:59;;;;;;;18.77;16.27;;;23.20;91.10;;;;;;5022616;28;20028;-81
2021/05/31 04:21:25;;;;;;;22.77;17.98;;;23.20;91.10;;;;;;5054892;28;20102;-81
2021/05/31 04:23:51;;;;;;;19.27;15.50;;;23.20;91.10;;;;;;5038583;28;20124;-81
2021/05/31 04:26:17;;;;;;;21.73;16.38;;;23.20;91.10;;;;;;5038554;28;20052;-82
2021/05/31 04:28:43;;;;;;;20.98;16.92;;;23.20;91.10;;;;;;5073124;28;20052;-81
2021/05/31 04:31:09;;;;;;;19.50;15.95;;;23.20;91.10;;;;;;5054817;28;20478;-82
2021/05/31 04:33:34;;;;;;;17.38;15.00;;;23.20;91.10;;;;;;5055319;28;20064;-81
2021/05/31 04:36:00;;;;;;;17.38;15.05;;;23.20;91.10;;;;;;5038699;28;20115;-81
2021/05/31 04:38:26;;;;;;;17.73;14.82;;;23.20;91.10;;;;;;5054761;28;20583;-81
2021/05/31 04:40:52;;;;;;;20.23;15.18;;;23.20;91.10;;;;;;5072989;28;20025;-81
2021/05/31 04:43:18;;;;;;;18.50;15.07;;;23.20;91.10;;;;;;5072776;28;20047;-81
2021/05/31 04:45:44;;;;;;;18.30;14.57;;;23.20;91.10;;;;;;5072612;28;20331;-81
2021/05/31 04:48:10;;;;;;;16.23;13.35;;;23.20;91.10;;;;;;5038156;28;20029;-81
2021/05/31 04:50:36;;;;;;;17.35;14.77;;;23.20;91.30;;;;;;5055212;28;20543;-81
2021/05/31 04:53:02;;;;;;;15.18;13.00;;;23.20;91.20;;;;;;5072562;28;20036;-81
2021/05/31 04:55:28;;;;;;;14.32;12.45;;;23.20;91.10;;;;;;5054584;28;20044;-81
2021/05/31 04:57:54;;;;;;;15.40;12.68;;;23.20;91.10;;;;;;5054936;28;20039;-80
2021/05/31 05:00:20;;;;;;;14.75;12.88;;;23.20;91.10;;;;;;5075540;28;20092;-81
2021/05/31 05:02:46;;;;;;;15.00;12.25;;;23.20;91.10;;;;;;5058947;28;20467;-80
2021/05/31 05:05:12;;;;;;;15.57;12.88;;;23.20;91.10;;;;;;5076736;28;20040;-81
2021/05/31 05:07:45;;;;;;;14.48;12.30;;;23.20;91.10;;;;;;5058926;28;20116;-80
2021/05/31 05:10:22;;;;;;;15.95;12.57;;;23.20;91.10;;;;;;5043014;28;20029;-81
2021/05/31 05:12:50;;;;;;;13.38;11.32;;;23.20;91.20;;;;;;5058892;28;20036;-80
2021/05/31 05:15:18;;;;;;;13.68;11.52;;;23.20;91.20;;;;;;5076489;28;20115;-81
2021/05/31 05:17:47;;;;;;;13.20;11.80;;;23.30;91.20;;;;;;5058747;28;20093;-81
2021/05/31 05:20:14;;;;;;;13.95;11.25;;;23.30;91.20;;;;;;5041752;28;20033;-82
2021/05/31 05:22:40;;;;;;;15.70;12.13;;;23.30;91.30;;;;;;5076480;28;20111;-80
2021/05/31 05:25:07;;;;;;;11.48;10.00;;;23.30;91.20;;;;;;5058461;28;20462;-81
2021/05/31 05:27:32;;;;;;;14.27;11.15;;;23.30;91.20;;;;;;5041353;28;20060;-80
2021/05/31 05:29:58;;;;;;;11.95;9.85;;;23.30;91.20;;;;;;5058586;28;20068;-80
2021/05/31 05:32:24;;;;;;;12.15;9.93;;;23.30;91.20;;;;;;5041107;28;20056;-81
2021/05/31 05:34:51;;;;;;;13.13;10.05;;;23.30;91.20;;;;;;5041924;28;20079;-81
2021/05/31 05:37:25;;;;;;;13.18;9.63;;;23.30;91.30;;;;;;5076100;28;20490;-82
2021/05/31 05:43:03;;;;;;;12.02;9.85;;;23.30;91.30;;;;;;5008547;28;20040;-82
2021/05/31 05:48:12;;;;;;;9.77;8.30;;;23.30;91.30;;;;;;5046723;28;20356;-85
2021/05/31 05:50:38;;;;;;;10.35;8.63;;;23.40;91.30;;;;;;5058157;28;20119;-82
2021/05/31 05:53:04;;;;;;;9.60;8.27;;;23.30;91.30;;;;;;5058043;28;20372;-81
2021/05/31 05:55:29;;;;;;;10.30;8.48;;;23.40;91.40;;;;;;5057877;28;20028;-82
2021/05/31 05:57:55;;;;;;;10.02;8.50;;;23.40;91.40;;;;;;5058138;28;20467;-82
2021/05/31 06:00:24;;;;;;;9.38;7.88;;;23.40;91.30;;;;;;5075490;28;20539;-82
2021/05/31 06:02:51;;;;;;;10.02;8.38;;;23.40;91.30;;;;;;5058007;28;20032;-82
2021/05/31 06:05:18;;;;;;;8.30;6.82;;;23.40;91.30;;;;;;5057490;28;20025;-83
2021/05/31 06:07:44;;;;;;;8.02;6.97;;;23.40;91.30;;;;;;5057765;28;20112;-81
2021/05/31 06:10:11;;;;;;;8.55;7.32;;;23.40;91.30;;;;;;5040577;28;20127;-82
2021/05/31 06:12:37;;;;;;;8.30;7.28;;;23.40;91.30;;;;;;5057028;28;20064;-83
2021/05/31 06:15:04;;;;;;;9.23;7.05;;;23.40;91.30;;;;;;5075883;28;20040;-82
2021/05/31 06:17:30;;;;;;;7.95;6.63;;;23.40;91.30;;;;;;5041047;28;20045;-82
2021/05/31 06:20:00;;;;;;;7.85;6.47;;;23.40;91.30;;;;;;5040300;28;20126;-81
2021/05/31 06:22:28;;;;;;;7.53;6.43;;;23.50;91.40;;;;;;5058085;28;20078;-83
2021/05/31 06:24:53;;;;;;;6.07;5.47;;;23.50;91.40;;;;;;5057883;28;20086;-82
2021/05/31 06:27:19;;;;;;;7.00;5.60;;;23.50;91.40;;;;;;5057347;28;20036;-83
2021/05/31 06:29:45;;;;;;;6.32;5.45;;;23.50;91.40;;;;;;5024055;28;20032;-82
2021/05/31 06:32:11;;;;;;;5.75;5.20;;;23.50;91.40;;;;;;5040425;28;20032;-83
2021/05/31 06:34:37;;;;;;;5.90;5.30;;;23.50;91.40;;;;;;5075034;28;20116;-83
2021/05/31 06:37:03;;;;;;;5.53;4.78;;;23.60;91.40;;;;;;5040768;28;20047;-82
2021/05/31 06:39:29;;;;;;;5.75;5.03;;;23.60;91.40;;;;;;5040604;28;20434;-81
2021/05/31 06:41:54;;;;;;;5.13;4.50;;;23.60;91.40;;;;;;5040754;28;20075;-81
2021/05/31 06:44:20;;;;;;;5.43;4.60;;;23.60;91.40;;;;;;5056800;28;20029;-82
2021/05/31 06:46:45;;;;;;;6.50;5.25;;;23.60;91.40;;;;;;5057202;28;20051;-81
2021/05/31 06:49:11;;;;;;;5.20;4.22;;;23.60;91.40;;;;;;5023949;28;20367;-81
2021/05/31 06:51:37;;;;;;;5.57;5.05;;;23.60;91.40;;;;;;5056918;28;20032;-81
2021/05/31 06:54:03;;;;;;;4.93;4.43;;;23.60;91.40;;;;;;5040666;28;20060;-81
2021/05/31 06:56:29;;;;;;;5.97;5.07;;;23.60;91.50;;;;;;5056747;28;20108;-83
2021/05/31 06:58:54;;;;;;;6.90;5.90;;;23.60;91.60;;;;;;5040493;28;20154;-82
2021/05/31 07:01:20;;;;;;;6.13;5.30;;;23.60;91.60;;;;;;5023525;28;20060;-83
2021/05/31 07:03:46;;;;;;;6.80;5.60;;;23.70;91.70;;;;;;5056636;28;20033;-81
2021/05/31 07:06:11;;;;;;;7.15;6.15;;;23.70;91.80;;;;;;5056765;28;20120;-82
2021/05/31 07:08:37;;;;;;;5.75;5.15;;;23.70;91.80;;;;;;5056344;28;20037;-82
2021/05/31 07:11:15;;;;;;;6.32;5.68;;;23.70;91.80;;;;;;5039847;28;20462;-81
2021/05/31 07:13:41;;;;;;;6.82;5.95;;;23.70;91.80;;;;;;5041246;28;20040;-82
2021/05/31 07:16:12;;;;;;;7.20;6.32;;;23.70;91.90;;;;;;5056876;28;20024;-82
2021/05/31 07:18:38;;;;;;;7.32;5.80;;;23.70;92.00;;;;;;5056242;28;20107;-82
2021/05/31 07:21:04;;;;;;;5.85;5.15;;;23.70;92.00;;;;;;5022816;28;20029;-82
2021/05/31 07:23:30;;;;;;;7.15;5.60;;;23.70;92.00;;;;;;5055645;28;20029;-82
2021/05/31 07:25:56;;;;;;;6.25;4.80;;;23.70;92.00;;;;;;5072634;28;20382;-84
2021/05/31 07:28:21;;;;;;;4.57;4.13;;;23.70;92.00;;;;;;5055112;28;20452;-83
2021/05/31 07:30:47;;;;;;;4.60;3.90;;;23.70;92.00;;;;;;5038640;28;20475;-83
2021/05/31 07:33:14;;;;;;;4.38;3.90;;;23.70;92.00;;;;;;5037124;28;20036;-82
2021/05/31 07:35:41;;;;;;;4.43;4.00;;;23.70;91.90;;;;;;5039037;28;20040;-81
2021/05/31 07:38:07;;;;;;;3.78;3.42;;;23.70;91.90;;;;;;5074229;28;20478;-82
2021/05/31 07:40:33;;;;;;;3.58;3.20;;;23.70;91.90;;;;;;5055825;28;20119;-82
2021/05/31 07:42:59;;;;;;;4.00;3.38;;;23.80;91.90;;;;;;5055779;28;20107;-82
2021/05/31 07:45:25;;;;;;;4.25;2.90;;;23.80;91.90;;;;;;5073671;28;20074;-84
2021/05/31 07:47:52;;;;;;;3.35;2.92;;;23.80;91.80;;;;;;5056364;28;20031;-82
2021/05/31 07:50:19;;;;;;;3.22;2.92;;;23.80;91.80;;;;;;5039282;28;20029;-82
2021/05/31 07:52:45;;;;;;;3.13;2.83;;;23.80;91.80;;;;;;5055567;28;20489;-82
2021/05/31 07:55:13;;;;;;;2.60;2.40;;;23.80;91.80;;;;;;5073529;28;20029;-82
2021/05/31 07:57:40;;;;;;;3.00;2.60;;;23.80;91.80;;;;;;5038996;28;20179;-82
2021/05/31 08:00:09;;;;;;;2.58;2.38;;;23.80;91.80;;;;;;5073043;28;20516;-82
2021/05/31 08:02:36;;;;;;;3.08;2.78;;;23.80;91.80;;;;;;5054832;28;20040;-82
2021/05/31 08:05:02;;;;;;;3.08;2.78;;;23.90;91.90;;;;;;5055906;28;20122;-80
2021/05/31 08:07:28;;;;;;;3.40;2.88;;;23.90;91.90;;;;;;5055571;28;20051;-80
2021/05/31 08:09:53;;;;;;;2.78;2.53;;;23.90;91.90;;;;;;5055724;28;20040;-82
2021/05/31 08:12:19;;;;;;;2.33;2.13;;;23.90;91.90;;;;;;5038781;28;20095;-81
2021/05/31 08:14:45;;;;;;;2.67;2.45;;;23.90;91.90;;;;;;5055251;28;20044;-81
2021/05/31 08:17:11;;;;;;;3.08;2.60;;;23.90;91.90;;;;;;5073664;28;20409;-82
2021/05/31 08:19:37;;;;;;;2.95;2.42;;;23.90;91.90;;;;;;5055073;28;20383;-82
2021/05/31 08:22:04;;;;;;;2.83;2.50;;;23.90;91.90;;;;;;5038784;28;20029;-82
2021/05/31 08:24:30;;;;;;;2.78;2.45;;;24.00;91.90;;;;;;5072905;28;20031;-82
2021/05/31 08:26:55;;;;;;;3.13;2.83;;;23.90;91.90;;;;;;5073541;28;20024;-80
2021/05/31 08:29:21;;;;;;;3.40;2.90;;;24.00;91.90;;;;;;5022383;28;20037;-82
2021/05/31 08:31:48;;;;;;;3.30;3.00;;;24.00;91.90;;;;;;5038232;28;20452;-82
2021/05/31 08:34:14;;;;;;;3.25;2.80;;;24.00;91.90;;;;;;5072667;28;20040;-82
2021/05/31 08:36:40;;;;;;;3.00;2.70;;;24.00;91.80;;;;;;5054918;28;20453;-82
2021/05/31 08:39:07;;;;;;;3.40;3.10;;;24.00;91.80;;;;;;5073096;28;20031;-82
2021/05/31 08:41:34;;;;;;;3.38;3.05;;;24.00;91.80;;;;;;5038421;28;20123;-80
2021/05/31 08:44:00;;;;;;;3.55;2.92;;;24.00;91.80;;;;;;5072972;28;20086;-82
2021/05/31 08:46:26;;;;;;;2.75;2.55;;;24.00;91.80;;;;;;5054969;28;20032;-82
2021/05/31 08:48:52;;;;;;;3.88;3.10;;;24.00;91.80;;;;;;5072762;28;20028;-82
2021/05/31 08:51:19;;;;;;;3.45;3.15;;;24.00;91.80;;;;;;5054961;28;20063;-82
2021/05/31 08:53:45;;;;;;;3.08;2.78;;;24.00;91.70;;;;;;5054728;28;20055;-82
2021/05/31 08:56:11;;;;;;;3.10;2.80;;;24.00;91.70;;;;;;5038223;28;20467;-82
2021/05/31 08:58:37;;;;;;;2.88;2.67;;;24.00;91.70;;;;;;5038166;28;20032;-82
2021/05/31 09:01:03;;;;;;;4.10;3.33;;;24.00;91.70;;;;;;5054651;28;20121;-82
2021/05/31 09:03:29;;;;;;;3.40;2.95;;;24.10;91.70;;;;;;5054971;28;20166;-80
2021/05/31 09:06:05;;;;;;;3.35;2.85;;;24.10;91.70;;;;;;5054769;28;20119;-80
2021/05/31 09:08:31;;;;;;;4.05;3.30;;;24.10;91.60;;;;;;5072816;28;20025;-82
2021/05/31 09:11:01;;;;;;;3.75;3.08;;;24.10;91.60;;;;;;5054537;28;20375;-80
2021/05/31 09:13:28;;;;;;;3.55;3.20;;;24.10;91.60;;;;;;5072342;28;20497;-80
2021/05/31 09:16:17;;;;;;;3.25;2.92;;;24.10;91.60;;;;;;5054294;28;20028;-80
2021/05/31 09:18:58;;;;;;;3.05;2.75;;;24.10;91.60;;;;;;5072101;28;20048;-81
2021/05/31 09:21:43;;;;;;;2.90;2.67;;;24.20;91.60;;;;;;5054671;28;20020;-80
2021/05/31 09:24:11;;;;;;;3.65;3.30;;;24.10;91.60;;;;;;5054772;28;20021;-80
2021/05/31 09:26:44;;;;;;;4.07;3.45;;;24.10;91.60;;;;;;5072236;28;20458;-81
2021/05/31 09:29:10;;;;;;;3.35;3.05;;;24.10;91.60;;;;;;5054932;28;20029;-80
2021/05/31 09:31:35;;;;;;;3.53;3.17;;;24.20;91.60;;;;;;5071905;28;20090;-81
2021/05/31 09:34:02;;;;;;;3.72;3.33;;;24.20;91.60;;;;;;5072350;28;20036;-80
2021/05/31 09:36:29;;;;;;;3.97;3.58;;;24.20;91.50;;;;;;5072463;28;20027;-81
2021/05/31 09:38:56;;;;;;;3.78;3.38;;;24.20;91.50;;;;;;5054506;28;20078;-81
2021/05/31 09:41:28;;;;;;;4.03;3.63;;;24.20;91.50;;;;;;5072744;28;20052;-81
2021/05/31 09:44:03;;;;;;;4.15;3.45;;;24.20;91.50;;;;;;5072149;28;20082;-81
2021/05/31 09:46:46;;;;;;;3.58;3.25;;;24.20;91.50;;;;;;5075460;28;20028;-81
2021/05/31 09:49:21;;;;;;;3.75;3.15;;;24.20;91.50;;;;;;5076024;28;20055;-81
2021/05/31 09:52:00;;;;;;;3.88;3.45;;;24.20;91.50;;;;;;5075586;28;20036;-81
2021/05/31 09:54:40;;;;;;;3.60;3.20;;;24.30;91.50;;;;;;5075924;28;20103;-82
2021/05/31 09:57:24;;;;;;;3.20;2.90;;;24.20;91.40;;;;;;5058194;28;20025;-82
2021/05/31 09:59:55;;;;;;;3.10;2.80;;;24.30;91.40;;;;;;5057298;28;20024;-82
2021/05/31 10:02:39;;;;;;;3.58;3.13;;;24.30;91.40;;;;;;5057694;28;20056;-81
2021/05/31 10:08:04;;;;;;;3.20;2.90;;;24.20;91.30;;;;;;5037566;28;20079;-80
2021/05/31 10:10:31;;;;;;;3.58;3.20;;;24.30;91.40;;;;;;5075914;28;20172;-82
2021/05/31 10:12:58;;;;;;;3.38;3.08;;;24.30;91.30;;;;;;5057299;28;20078;-80
2021/05/31 10:15:27;;;;;;;3.03;2.72;;;24.30;91.30;;;;;;5041217;28;20109;-81
2021/05/31 10:17:58;;;;;;;2.95;2.70;;;24.30;91.30;;;;;;5057142;28;20025;-81
2021/05/31 10:20:25;;;;;;;3.20;2.83;;;24.30;91.30;;;;;;5040964;28;20033;-81
2021/05/31 10:22:51;;;;;;;3.08;2.72;;;24.30;91.30;;;;;;5057048;28;20043;-81
2021/05/31 10:25:18;;;;;;;3.33;3.03;;;24.30;91.30;;;;;;5057213;28;20021;-81
2021/05/31 10:27:44;;;;;;;2.75;2.53;;;24.40;91.30;;;;;;5056636;28;20119;-81
2021/05/31 10:30:14;;;;;;;2.90;2.60;;;24.30;91.20;;;;;;5057122;28;20028;-80
2021/05/31 10:32:40;;;;;;;2.83;2.58;;;24.40;91.20;;;;;;5057100;28;20093;-84
2021/05/31 10:35:18;;;;;;;3.33;2.70;;;24.40;91.20;;;;;;5075172;28;20024;-81
2021/05/31 10:37:57;;;;;;;3.47;2.83;;;24.40;91.20;;;;;;5056910;28;20025;-81
2021/05/31 10:40:33;;;;;;;2.65;2.45;;;24.40;91.20;;;;;;5074693;28;20440;-81
2021/05/31 10:43:04;;;;;;;3.22;2.72;;;24.40;91.20;;;;;;5072868;28;20059;-81
2021/05/31 10:45:30;;;;;;;2.50;2.30;;;24.40;91.10;;;;;;5057136;28;20025;-81
2021/05/31 10:47:58;;;;;;;2.72;2.22;;;24.40;91.10;;;;;;5040054;28;20115;-81
2021/05/31 10:50:32;;;;;;;2.70;2.50;;;24.40;91.10;;;;;;5056485;28;20028;-81
2021/05/31 10:52:59;;;;;;;2.97;2.72;;;24.40;91.10;;;;;;5056785;28;20059;-80
2021/05/31 10:55:26;;;;;;;2.88;2.58;;;24.40;91.10;;;;;;5056779;28;20089;-81
2021/05/31 10:57:57;;;;;;;2.70;2.40;;;24.40;91.10;;;;;;5073894;28;20086;-81
2021/05/31 11:00:28;;;;;;;2.50;2.30;;;24.40;91.10;;;;;;5074567;28;20060;-80
2021/05/31 11:03:05;;;;;;;2.63;2.28;;;24.40;91.10;;;;;;5040148;28;20064;-81
2021/05/31 11:05:34;;;;;;;2.20;2.00;;;24.40;91.10;;;;;;5074506;28;20533;-80
2021/05/31 11:08:00;;;;;;;2.20;2.00;;;24.40;91.10;;;;;;5056086;28;20024;-81
2021/05/31 11:10:30;;;;;;;2.40;2.10;;;24.40;91.10;;;;;;5056448;28;20036;-81
2021/05/31 11:13:07;;;;;;;2.20;2.00;;;24.40;91.10;;;;;;5055959;28;20455;-80
2021/05/31 11:15:36;;;;;;;2.45;2.25;;;24.40;91.10;;;;;;5056235;28;20390;-80
2021/05/31 11:18:02;;;;;;;2.17;1.98;;;24.40;91.10;;;;;;5073734;28;20029;-81
2021/05/31 11:20:29;;;;;;;2.25;2.05;;;24.40;91.00;;;;;;5056110;28;20063;-80
2021/05/31 11:23:03;;;;;;;2.15;1.95;;;24.40;91.00;;;;;;5073888;28;20039;-81
2021/05/31 11:25:31;;;;;;;2.28;2.08;;;24.40;91.00;;;;;;5056481;28;20047;-81
2021/05/31 11:27:59;;;;;;;2.40;2.20;;;24.50;91.00;;;;;;5055790;28;20174;-81
2021/05/31 11:30:31;;;;;;;2.30;2.10;;;24.50;91.00;;;;;;5056030;28;20031;-80
2021/05/31 11:32:59;;;;;;;1.98;1.80;;;24.40;90.90;;;;;;5073513;28;20470;-81
2021/05/31 11:35:27;;;;;;;2.78;2.38;;;24.50;90.90;;;;;;5073520;28;20158;-81
2021/05/31 11:37:54;;;;;;;1.95;1.80;;;24.40;90.80;;;;;;5055670;28;20029;-80
2021/05/31 11:40:23;;;;;;;2.17;1.98;;;24.50;90.80;;;;;;5056439;28;20037;-80
2021/05/31 11:42:54;;;;;;;2.08;1.88;;;24.50;90.70;;;;;;5055552;28;20035;-80
2021/05/31 11:45:23;;;;;;;2.15;1.95;;;24.50;90.70;;;;;;5055900;28;20029;-80
2021/05/31 11:48:02;;;;;;;2.00;1.80;;;24.50;90.60;;;;;;5073457;28;20535;-81
2021/05/31 11:50:29;;;;;;;1.50;1.40;;;24.50;90.60;;;;;;5073608;28;20481;-80
2021/05/31 11:52:55;;;;;;;2.50;2.10;;;24.50;90.50;;;;;;5055322;28;20056;-80
2021/05/31 11:55:23;;;;;;;1.90;1.80;;;24.50;90.40;;;;;;5073217;28;20034;-80
2021/05/31 11:57:51;;;;;;;2.03;1.80;;;24.50;90.30;;;;;;5055485;28;20045;-81
2021/05/31 12:00:22;;;;;;;2.22;2.03;;;24.60;90.30;;;;;;5055538;28;20032;-81
2021/05/31 12:02:48;;;;;;;1.73;1.63;;;24.60;90.20;;;;;;5055267;28;20143;-80
2021/05/31 12:05:15;;;;;;;2.00;1.80;;;24.60;90.20;;;;;;5055088;28;20139;-80
2021/05/31 12:07:45;;;;;;;1.77;1.60;;;24.60;90.20;;;;;;5072844;28;20576;-81
2021/05/31 12:10:12;;;;;;;1.90;1.70;;;24.60;90.20;;;;;;5055073;28;20527;-80
2021/05/31 12:12:39;;;;;;;1.65;1.55;;;24.60;90.20;;;;;;5072827;28;20078;-81
2021/05/31 12:15:05;;;;;;;1.70;1.60;;;24.60;90.20;;;;;;5072836;28;20025;-82
2021/05/31 12:17:32;;;;;;;1.60;1.50;;;24.50;90.20;;;;;;5072852;28;20033;-82
2021/05/31 12:19:57;;;;;;;1.85;1.70;;;24.60;90.10;;;;;;5038224;28;20119;-82
2021/05/31 12:22:30;;;;;;;1.70;1.50;;;24.60;90.10;;;;;;5055247;28;20131;-83
2021/05/31 12:24:59;;;;;;;1.52;1.42;;;24.60;90.10;;;;;;5054902;28;20514;-84
2021/05/31 12:27:30;;;;;;;1.65;1.48;;;24.60;90.10;;;;;;5072806;28;20031;-82
2021/05/31 12:29:57;;;;;;;1.95;1.83;;;24.60;90.00;;;;;;5038125;28;20024;-83
2021/05/31 12:32:28;;;;;;;1.60;1.50;;;24.60;90.00;;;;;;5072675;28;20044;-82
2021/05/31 12:34:55;;;;;;;1.55;1.45;;;24.60;90.00;;;;;;5072946;28;20370;-84
2021/05/31 12:37:26;;;;;;;1.30;1.20;;;24.50;89.70;;;;;;5054997;28;20037;-82
2021/05/31 12:39:53;;;;;;;1.40;1.30;;;24.60;89.30;;;;;;5073057;28;20031;-82
2021/05/31 12:42:27;;;;;;;1.63;1.20;;;24.60;89.10;;;;;;5072906;28;20036;-82
2021/05/31 12:45:00;;;;;;;1.30;1.20;;;24.60;89.00;;;;;;5054862;28;20021;-82
2021/05/31 12:47:32;;;;;;;1.27;1.17;;;24.60;89.00;;;;;;5038518;28;20032;-82
2021/05/31 12:49:59;;;;;;;1.63;1.40;;;24.60;88.80;;;;;;5073162;28;20028;-82
2021/05/31 12:52:27;;;;;;;1.33;1.20;;;24.60;88.70;;;;;;5055052;28;20036;-82
2021/05/31 12:55:10;;;;;;;1.20;1.10;;;24.60;88.50;;;;;;5054904;28;20025;-82
2021/05/31 12:57:41;;;;;;;1.33;1.23;;;24.60;88.10;;;;;;5072445;28;20021;-82